createdAt,value
2022-08-20T00:03:33.028Z,97744.75
2022-08-20T00:06:06.069Z,97742.34
2022-08-20T00:08:34.341Z,97732.97
2022-08-20T00:11:03.257Z,97741.28
2022-08-20T00:13:34.642Z,97753.03
2022-08-20T00:16:02.702Z,97762.81
2022-08-20T00:18:31.007Z,97752.13
2022-08-20T00:21:01.051Z,97758.03
2022-08-20T00:23:30.274Z,97761.97
2022-08-20T00:25:58.737Z,97766.28
2022-08-20T00:28:26.558Z,97769.03
2022-08-20T00:30:54.674Z,97759.13
2022-08-20T00:33:24.494Z,97752.25
2022-08-20T00:35:56.321Z,97746.22
2022-08-20T00:38:25.555Z,97735.44
2022-08-20T00:40:58.449Z,97742.47
2022-08-20T00:43:35.525Z,97739.06
2022-08-20T00:46:06.890Z,97729.50
2022-08-20T00:48:37.402Z,97717.91
2022-08-20T00:51:08.624Z,97717.06
2022-08-20T00:53:38.922Z,97728.75
2022-08-20T00:56:10.582Z,97722.47
2022-08-20T00:58:41.192Z,97742.91
2022-08-20T01:01:10.384Z,97740.50
2022-08-20T01:03:38.341Z,97742.16
2022-08-20T01:06:06.704Z,97742.16
2022-08-20T01:08:34.677Z,97733.41
2022-08-20T01:11:09.973Z,97726.22
2022-08-20T01:13:41.789Z,97730.19
2022-08-20T01:16:19.134Z,97728.66
2022-08-20T01:18:49.413Z,97734.53
2022-08-20T01:21:22.155Z,97733.34
2022-08-20T01:23:57.061Z,97740.03
2022-08-20T01:26:30.219Z,97746.81
2022-08-20T01:29:02.486Z,97760.75
2022-08-20T01:31:34.170Z,97747.06
2022-08-20T01:34:05.068Z,97757.91
2022-08-20T01:36:45.543Z,97757.19
2022-08-20T01:39:18.439Z,97758.84
2022-08-20T01:41:57.094Z,97759.69
2022-08-20T01:44:25.739Z,97761.31
2022-08-20T01:46:57.756Z,97751.75
2022-08-20T01:49:29.415Z,97736.81
2022-08-20T01:52:00.420Z,97744.03
2022-08-20T01:54:29.294Z,97735.13
2022-08-20T01:57:01.649Z,97740.63
2022-08-20T01:59:30.632Z,97741.78
2022-08-20T02:01:59.832Z,97724.50
2022-08-20T02:04:27.842Z,97736.34
2022-08-20T02:06:58.412Z,97747.50
2022-08-20T02:09:27.980Z,97749.88
2022-08-20T02:11:56.535Z,97737.72
2022-08-20T02:14:26.640Z,97736.44
2022-08-20T02:16:58.374Z,97742.78
2022-08-20T02:19:32.090Z,97737.34
2022-08-20T02:22:02.349Z,97749.97
2022-08-20T02:24:30.938Z,97745.28
2022-08-20T02:26:58.806Z,97742.06
2022-08-20T02:29:28.053Z,97744.53
2022-08-20T02:32:32.341Z,97742.66
2022-08-20T02:34:44.178Z,97732.91
2022-08-20T02:37:14.593Z,97718.44
2022-08-20T02:39:42.419Z,97714.81
2022-08-20T02:42:12.292Z,97713.72
2022-08-20T02:44:41.625Z,97716.47
2022-08-20T02:47:09.397Z,97714.94
2022-08-20T02:49:37.643Z,97709.50
2022-08-20T02:52:05.820Z,97701.44
2022-08-20T02:54:33.609Z,97700.25
2022-08-20T02:57:03.543Z,97691.13
2022-08-20T02:59:31.610Z,97682.47
2022-08-20T03:02:01.334Z,97692.72
2022-08-20T03:04:29.435Z,97697.06
2022-08-20T03:06:57.741Z,97688.78
2022-08-20T03:09:25.622Z,97695.13
2022-08-20T03:11:54.366Z,97691.16
2022-08-20T03:14:22.349Z,97676.91
2022-08-20T03:16:50.453Z,97676.22
2022-08-20T03:19:19.747Z,97667.84
2022-08-20T03:21:48.076Z,97670.59
2022-08-20T03:24:16.166Z,97666.81
2022-08-20T03:26:44.279Z,97670.81
2022-08-20T03:29:12.186Z,97674.78
2022-08-20T03:31:40.040Z,97668.47
2022-08-20T03:34:08.195Z,97659.00
2022-08-20T03:36:37.671Z,97661.47
2022-08-20T03:39:11.550Z,97661.84
2022-08-20T03:41:40.197Z,97667.84
2022-08-20T03:44:08.097Z,97662.34
2022-08-20T03:46:36.047Z,97665.91
2022-08-20T03:49:04.507Z,97664.69
2022-08-20T03:51:45.815Z,97665.06
2022-08-20T03:54:22.999Z,97663.88
2022-08-20T03:56:50.869Z,97672.56
2022-08-20T03:59:18.723Z,97702.50
2022-08-20T04:01:47.088Z,97691.41
2022-08-20T04:04:16.101Z,97687.31
2022-08-20T04:06:45.403Z,97695.53
2022-08-20T04:09:13.428Z,97700.50
2022-08-20T04:11:43.090Z,97697.44
2022-08-20T04:14:11.996Z,97700.59
2022-08-20T04:16:45.703Z,97698.16
2022-08-20T04:19:16.904Z,97697.44
2022-08-20T04:21:48.722Z,97697.44
2022-08-20T04:24:22.532Z,97696.69
2022-08-20T04:27:02.644Z,97685.69
2022-08-20T04:29:32.400Z,97681.31
2022-08-20T04:32:03.353Z,97672.31
2022-08-20T04:34:34.825Z,97667.63
2022-08-20T04:37:02.681Z,97649.38
2022-08-20T04:39:30.733Z,97652.19
2022-08-20T04:41:59.420Z,97648.69
2022-08-20T04:44:27.425Z,97645.47
2022-08-20T04:46:56.056Z,97647.81
2022-08-20T04:49:25.025Z,97639.94
2022-08-20T04:51:54.534Z,97649.44
2022-08-20T04:54:22.494Z,97659.56
2022-08-20T04:56:50.953Z,97660.94
2022-08-20T04:59:20.122Z,97657.28
2022-08-20T05:01:47.891Z,97661.13
2022-08-20T05:04:15.882Z,97664.59
2022-08-20T05:06:44.458Z,97662.88
2022-08-20T05:09:12.405Z,97664.28
2022-08-20T05:11:40.450Z,97648.28
2022-08-20T05:14:09.899Z,97638.81
2022-08-20T05:16:40.515Z,97626.22
2022-08-20T05:19:11.270Z,97632.16
2022-08-20T05:21:39.142Z,97629.34
2022-08-20T05:24:07.628Z,97629.53
2022-08-20T05:26:35.833Z,97627.31
2022-08-20T05:29:05.157Z,97629.16
2022-08-20T05:31:34.609Z,97632.84
2022-08-20T05:34:09.361Z,97633.47
2022-08-20T05:36:38.424Z,97629.13
2022-08-20T05:39:06.388Z,97628.69
2022-08-20T05:41:34.164Z,97632.69
2022-08-20T05:44:02.037Z,97641.72
2022-08-20T05:46:31.055Z,97643.13
2022-08-20T05:48:59.732Z,97649.19
2022-08-20T05:51:29.941Z,97652.19
2022-08-20T05:53:59.451Z,97651.25
2022-08-20T05:56:30.460Z,97649.59
2022-08-20T05:59:02.441Z,97652.03
2022-08-20T06:01:30.491Z,97661.84
2022-08-20T06:04:15.937Z,97652.56
2022-08-20T06:06:47.286Z,97671.47
2022-08-20T06:09:28.021Z,97675.38
2022-08-20T06:12:02.304Z,97670.69
2022-08-20T06:14:30.936Z,97669.16
2022-08-20T06:17:05.367Z,97683.03
2022-08-20T06:19:34.158Z,97683.53
2022-08-20T06:22:06.767Z,97690.81
2022-08-20T06:24:46.372Z,97695.16
2022-08-20T06:27:17.025Z,97696.22
2022-08-20T06:29:45.361Z,97693.69
2022-08-20T06:32:14.061Z,97690.41
2022-08-20T06:34:50.494Z,97695.88
2022-08-20T06:37:23.626Z,97691.00
2022-08-20T06:40:02.765Z,97693.25
2022-08-20T06:42:31.080Z,97682.69
2022-08-20T06:45:00.428Z,97681.63
2022-08-20T06:47:28.229Z,97687.09
2022-08-20T06:49:56.174Z,97684.56
2022-08-20T06:52:41.582Z,97684.38
2022-08-20T06:55:15.966Z,97676.38
2022-08-20T06:57:44.678Z,97694.75
2022-08-20T07:00:15.261Z,97691.91
2022-08-20T07:02:43.366Z,97699.78
2022-08-20T07:05:11.692Z,97694.97
2022-08-20T07:07:44.988Z,97691.66
2022-08-20T07:10:15.404Z,97699.63
2022-08-20T07:12:43.341Z,97694.44
2022-08-20T07:15:12.913Z,97700.00
2022-08-20T07:17:42.322Z,97680.41
2022-08-20T07:20:15.054Z,97690.13
2022-08-20T07:22:45.349Z,97698.50
2022-08-20T07:25:16.112Z,97691.97
2022-08-20T07:27:44.713Z,97690.03
2022-08-20T07:30:56.481Z,97691.41
2022-08-20T07:33:28.363Z,97687.63
2022-08-20T07:35:56.601Z,97688.78
2022-08-20T07:38:27.515Z,97685.84
2022-08-20T07:40:58.758Z,97686.22
2022-08-20T07:43:27.548Z,97673.66
2022-08-20T07:45:57.565Z,97684.00
2022-08-20T07:48:31.668Z,97678.13
2022-08-20T07:51:03.580Z,97678.91
2022-08-20T07:53:35.815Z,97670.78
2022-08-20T07:56:06.825Z,97678.88
2022-08-20T07:58:37.150Z,97668.53
2022-08-20T08:01:05.585Z,97674.22
2022-08-20T08:03:39.865Z,97672.78
2022-08-20T08:06:29.847Z,97673.09
2022-08-20T08:09:02.922Z,97677.44
2022-08-20T08:11:32.117Z,97673.94
2022-08-20T08:14:00.721Z,97677.19
2022-08-20T08:16:31.052Z,97688.69
2022-08-20T08:19:01.951Z,97676.47
2022-08-20T08:21:31.981Z,97678.16
2022-08-20T08:24:02.588Z,97678.41
2022-08-20T08:26:30.564Z,97678.38
2022-08-20T08:28:59.022Z,97673.03
2022-08-20T08:31:27.537Z,97666.47
2022-08-20T08:33:55.485Z,97663.59
2022-08-20T08:36:25.261Z,97666.16
2022-08-20T08:38:54.561Z,97658.38
2022-08-20T08:41:32.106Z,97659.69
2022-08-20T08:44:05.697Z,97661.72
2022-08-20T08:46:40.222Z,97653.16
2022-08-20T08:49:12.589Z,97652.25
2022-08-20T08:51:44.997Z,97656.38
2022-08-20T08:54:17.219Z,97654.03
2022-08-20T08:56:49.833Z,97653.22
2022-08-20T08:59:20.526Z,97649.69
2022-08-20T09:01:55.287Z,97649.88
2022-08-20T09:04:31.528Z,97653.16
2022-08-20T09:07:00.595Z,97653.34
2022-08-20T09:09:32.370Z,97650.06
2022-08-20T09:12:07.288Z,97647.56
2022-08-20T09:14:36.382Z,97644.81
2022-08-20T09:17:04.929Z,97633.78
2022-08-20T09:19:33.067Z,97638.56
2022-08-20T09:22:07.439Z,97640.25
2022-08-20T09:24:35.547Z,97643.63
2022-08-20T09:27:05.137Z,97643.50
2022-08-20T09:29:33.594Z,97634.53
2022-08-20T09:32:06.373Z,97637.91
2022-08-20T09:34:36.989Z,97634.50
2022-08-20T09:37:04.929Z,97642.06
2022-08-20T09:39:33.145Z,97636.75
2022-08-20T09:42:10.001Z,97633.78
2022-08-20T09:44:37.873Z,97633.06
2022-08-20T09:47:06.431Z,97638.91
2022-08-20T09:49:34.425Z,97631.19
2022-08-20T09:52:02.634Z,97638.38
2022-08-20T09:54:33.657Z,97635.88
2022-08-20T09:57:05.455Z,97645.38
2022-08-20T09:59:36.761Z,97632.06
2022-08-20T10:02:04.785Z,97651.78
2022-08-20T10:04:32.658Z,97656.06
2022-08-20T10:07:00.672Z,97650.56
2022-08-20T10:09:28.462Z,97638.50
2022-08-20T10:11:56.263Z,97620.25
2022-08-20T10:14:24.780Z,97635.19
2022-08-20T10:16:59.922Z,97636.88
2022-08-20T10:19:30.076Z,97635.88
2022-08-20T10:21:59.106Z,97629.03
2022-08-20T10:24:28.161Z,97627.50
2022-08-20T10:26:57.469Z,97621.16
2022-08-20T10:29:25.906Z,97625.69
2022-08-20T10:31:54.865Z,97620.75
2022-08-20T10:34:24.691Z,97621.06
2022-08-20T10:36:53.305Z,97621.47
2022-08-20T10:39:21.427Z,97627.22
2022-08-20T10:41:49.385Z,97625.22
2022-08-20T10:44:17.669Z,97623.25
2022-08-20T10:46:45.957Z,97618.88
2022-08-20T10:49:13.913Z,97616.94
2022-08-20T10:51:43.204Z,97609.78
2022-08-20T10:54:12.507Z,97615.81
2022-08-20T10:56:40.909Z,97610.63
2022-08-20T10:59:09.368Z,97618.09
2022-08-20T11:01:37.157Z,97613.59
2022-08-20T11:04:05.755Z,97614.16
2022-08-20T11:06:33.705Z,97613.03
2022-08-20T11:09:02.871Z,97603.75
2022-08-20T11:11:30.849Z,97601.78
2022-08-20T11:13:58.968Z,97602.06
2022-08-20T11:16:26.808Z,97600.53
2022-08-20T11:18:54.733Z,97592.31
2022-08-20T11:21:22.757Z,97587.63
2022-08-20T11:23:50.521Z,97590.59
2022-08-20T11:26:23.571Z,97580.94
2022-08-20T11:28:51.466Z,97577.59
2022-08-20T11:31:19.509Z,97579.56
2022-08-20T11:33:47.342Z,97576.03
2022-08-20T11:36:15.282Z,97580.88
2022-08-20T11:38:43.288Z,97569.91
2022-08-20T11:41:11.226Z,97576.59
2022-08-20T11:43:40.598Z,97566.91
2022-08-20T11:46:08.620Z,97576.59
2022-08-20T11:48:36.635Z,97575.53
2022-08-20T11:51:05.210Z,97564.69
2022-08-20T11:53:33.277Z,97564.25
2022-08-20T11:56:02.407Z,97566.19
2022-08-20T11:58:32.671Z,97570.91
2022-08-20T12:01:02.059Z,97560.56
2022-08-20T12:03:30.903Z,97550.78
2022-08-20T12:05:58.670Z,97557.47
2022-08-20T12:08:28.209Z,97558.72
2022-08-20T12:10:57.752Z,97559.69
2022-08-20T12:13:31.465Z,97562.97
2022-08-20T12:16:15.724Z,97570.91
2022-08-20T12:18:43.566Z,97569.69
2022-08-20T12:21:11.713Z,97568.91
2022-08-20T12:23:39.766Z,97581.75
2022-08-20T12:26:07.692Z,97584.66
2022-08-20T12:28:35.596Z,97586.84
2022-08-20T12:31:03.558Z,97601.66
2022-08-20T12:33:32.827Z,97622.06
2022-08-20T12:36:01.857Z,97632.09
2022-08-20T12:38:30.042Z,97649.44
2022-08-20T12:40:57.975Z,97650.94
2022-08-20T12:43:25.794Z,97652.28
2022-08-20T12:45:54.216Z,97671.31
2022-08-20T12:48:22.015Z,97669.19
2022-08-20T12:50:52.651Z,97680.66
2022-08-20T12:53:20.660Z,97681.97
2022-08-20T12:55:48.469Z,97689.19
2022-08-20T12:58:16.318Z,97686.72
2022-08-20T13:00:50.733Z,97715.59
2022-08-20T13:03:20.691Z,97729.00
2022-08-20T13:05:50.302Z,97736.91
2022-08-20T13:08:20.013Z,97727.81
2022-08-20T13:10:48.420Z,97733.72
2022-08-20T13:13:20.377Z,97722.97
2022-08-20T13:15:49.169Z,97755.56
2022-08-20T13:18:17.124Z,97767.88
2022-08-20T13:20:45.205Z,97795.19
2022-08-20T13:23:13.026Z,97805.81
2022-08-20T13:25:42.380Z,97824.03
2022-08-20T13:28:10.217Z,97812.91
2022-08-20T13:30:38.682Z,97840.56
2022-08-20T13:33:07.051Z,97827.78
2022-08-20T13:35:34.928Z,97822.53
2022-08-20T13:38:02.767Z,97804.91
2022-08-20T13:40:30.769Z,97820.78
2022-08-20T13:43:05.901Z,97796.00
2022-08-20T13:45:34.591Z,97789.44
2022-08-20T13:48:02.374Z,97763.59
2022-08-20T13:50:30.366Z,97751.28
2022-08-20T13:52:58.644Z,97734.59
2022-08-20T13:55:28.089Z,97713.69
2022-08-20T13:57:58.069Z,97701.16
2022-08-20T14:00:31.095Z,97707.56
2022-08-20T14:02:59.700Z,97684.78
2022-08-20T14:05:27.699Z,97658.81
2022-08-20T14:07:55.451Z,97652.97
2022-08-20T14:10:31.189Z,97653.34
2022-08-20T14:12:59.627Z,97664.09
2022-08-20T14:15:28.873Z,97663.63
2022-08-20T14:17:58.649Z,97665.56
2022-08-20T14:20:31.968Z,97663.13
2022-08-20T14:23:01.653Z,97652.75
2022-08-20T14:25:31.652Z,97658.94
2022-08-20T14:27:59.875Z,97663.22
2022-08-20T14:30:30.948Z,97671.56
2022-08-20T14:32:58.986Z,97675.88
2022-08-20T14:35:26.838Z,97664.78
2022-08-20T14:37:56.603Z,97665.81
2022-08-20T14:40:26.352Z,97676.59
2022-08-20T14:42:54.969Z,97671.13
2022-08-20T14:45:24.037Z,97678.19
2022-08-20T14:47:57.089Z,97676.59
2022-08-20T14:50:28.505Z,97669.56
2022-08-20T14:52:57.394Z,97659.91
2022-08-20T14:55:29.019Z,97659.41
2022-08-20T14:57:57.579Z,97659.75
2022-08-20T15:00:28.074Z,97655.44
2022-08-20T15:02:58.146Z,97653.03
2022-08-20T15:05:26.273Z,97655.88
2022-08-20T15:07:55.025Z,97664.56
2022-08-20T15:10:25.886Z,97666.56
2022-08-20T15:12:53.919Z,97669.09
2022-08-20T15:15:22.660Z,97673.34
2022-08-20T15:17:53.217Z,97676.03
2022-08-20T15:20:24.515Z,97684.72
2022-08-20T15:22:52.899Z,97681.56
2022-08-20T15:25:23.058Z,97677.25
2022-08-20T15:27:51.668Z,97681.63
2022-08-20T15:30:21.659Z,97684.84
2022-08-20T15:32:54.612Z,97705.16
2022-08-20T15:35:26.838Z,97701.19
2022-08-20T15:37:57.684Z,97711.41
2022-08-20T15:40:28.662Z,97708.16
2022-08-20T15:42:57.575Z,97701.84
2022-08-20T15:45:25.942Z,97692.44
2022-08-20T15:47:56.524Z,97687.34
2022-08-20T15:50:38.970Z,97680.63
2022-08-20T15:53:11.591Z,97673.50
2022-08-20T15:55:44.971Z,97679.16
2022-08-20T15:58:18.837Z,97669.56
2022-08-20T16:00:57.066Z,97673.44
2022-08-20T16:04:24.690Z,97674.94
2022-08-20T16:06:59.601Z,97669.41
2022-08-20T16:09:41.322Z,97672.56
2022-08-20T16:12:12.462Z,97667.72
2022-08-20T16:14:43.608Z,97666.94
2022-08-20T16:17:16.077Z,97662.97
2022-08-20T16:19:57.030Z,97657.50
2022-08-20T16:22:28.950Z,97654.47
2022-08-20T16:24:57.735Z,97657.63
2022-08-20T16:27:33.533Z,97663.22
2022-08-20T16:30:05.294Z,97664.03
2022-08-20T16:32:38.547Z,97664.03
2022-08-20T16:35:21.160Z,97660.22
2022-08-20T16:37:58.817Z,97652.44
2022-08-20T16:40:30.115Z,97649.34
2022-08-20T16:43:00.505Z,97656.53
2022-08-20T16:45:33.484Z,97668.28
2022-08-20T16:48:05.385Z,97672.53
2022-08-20T16:50:39.263Z,97681.19
2022-08-20T16:53:14.775Z,97678.41
2022-08-20T16:55:43.348Z,97682.81
2022-08-20T16:58:11.163Z,97685.09
2022-08-20T17:00:44.861Z,97679.88
2022-08-20T17:03:31.646Z,97673.16
2022-08-20T17:06:18.069Z,97681.03
2022-08-20T17:08:51.109Z,97694.84
2022-08-20T17:11:26.139Z,97699.59
2022-08-20T17:14:09.038Z,97687.72
2022-08-20T17:16:40.692Z,97697.94
2022-08-20T17:19:10.141Z,97701.88
2022-08-20T17:21:39.114Z,97708.13
2022-08-20T17:24:16.478Z,97706.25
2022-08-20T17:26:48.146Z,97695.53
2022-08-20T17:29:21.158Z,97693.97
2022-08-20T17:31:51.679Z,97681.72
2022-08-20T17:34:21.490Z,97676.97
2022-08-20T17:36:53.371Z,97681.28
2022-08-20T17:39:24.789Z,97674.63
2022-08-20T17:41:56.109Z,97670.56
2022-08-20T17:44:29.479Z,97657.38
2022-08-20T17:47:00.021Z,97640.56
2022-08-20T17:49:35.158Z,97645.63
2022-08-20T17:52:06.478Z,97643.22
2022-08-20T17:54:41.350Z,97632.22
2022-08-20T17:57:15.625Z,97640.16
2022-08-20T17:59:59.686Z,97644.81
2022-08-20T18:02:31.813Z,97649.13
2022-08-20T18:04:59.981Z,97654.59
2022-08-20T18:07:39.401Z,97653.41
2022-08-20T18:10:14.676Z,97667.59
2022-08-20T18:12:50.670Z,97647.22
2022-08-20T18:15:24.295Z,97670.78
2022-08-20T18:18:13.171Z,97677.13
2022-08-20T18:21:08.258Z,97665.34
2022-08-20T18:23:41.402Z,97666.16
2022-08-20T18:26:15.018Z,97666.94
2022-08-20T18:28:47.870Z,97665.78
2022-08-20T18:31:27.088Z,97659.84
2022-08-20T18:33:55.993Z,97660.56
2022-08-20T18:36:27.464Z,97659.38
2022-08-20T18:39:03.649Z,97660.00
2022-08-20T18:41:36.469Z,97649.41
2022-08-20T18:44:08.156Z,97659.25
2022-08-20T18:46:38.094Z,97664.84
2022-08-20T18:49:08.498Z,97672.75
2022-08-20T18:51:42.017Z,97672.72
2022-08-20T18:54:22.629Z,97659.72
2022-08-20T18:57:04.966Z,97663.25
2022-08-20T18:59:39.015Z,97647.91
2022-08-20T19:02:17.339Z,97647.56
2022-08-20T19:04:52.838Z,97653.88
2022-08-20T19:07:48.997Z,97654.31
2022-08-20T19:10:35.394Z,97658.63
2022-08-20T19:13:27.981Z,97657.03
2022-08-20T19:16:02.508Z,97651.91
2022-08-20T19:18:38.365Z,97660.97
2022-08-20T19:21:13.453Z,97661.75
2022-08-20T19:23:49.368Z,97651.53
2022-08-20T19:26:25.287Z,97649.53
2022-08-20T19:28:59.920Z,97645.19
2022-08-20T19:31:30.629Z,97647.94
2022-08-20T19:34:20.247Z,97646.03
2022-08-20T19:36:59.462Z,97633.88
2022-08-20T19:39:37.101Z,97639.06
2022-08-20T19:42:15.138Z,97641.78
2022-08-20T19:44:50.174Z,97641.41
2022-08-20T19:47:26.465Z,97633.16
2022-08-20T19:50:05.657Z,97637.50
2022-08-20T19:52:43.241Z,97637.94
2022-08-20T19:55:21.538Z,97638.75
2022-08-20T19:57:55.265Z,97642.69
2022-08-20T20:00:26.147Z,97646.28
2022-08-20T20:02:54.269Z,97645.13
2022-08-20T20:05:23.210Z,97649.50
2022-08-20T20:07:52.876Z,97655.81
2022-08-20T20:10:32.560Z,97668.41
2022-08-20T20:13:08.587Z,97669.19
2022-08-20T20:15:38.540Z,97667.63
2022-08-20T20:18:07.258Z,97651.91
2022-08-20T20:20:50.218Z,97660.63
2022-08-20T20:23:27.690Z,97655.88
2022-08-20T20:26:11.909Z,97669.66
2022-08-20T20:28:48.151Z,97677.13
2022-08-20T20:31:23.417Z,97682.66
2022-08-20T20:33:54.934Z,97690.50
2022-08-20T20:36:34.906Z,97685.75
2022-08-20T20:39:07.265Z,97684.16
2022-08-20T20:41:37.942Z,97679.44
2022-08-20T20:44:08.397Z,97672.34
2022-08-20T20:46:40.638Z,97675.91
2022-08-20T20:49:18.799Z,97680.19
2022-08-20T20:51:55.230Z,97686.09
2022-08-20T20:54:27.270Z,97680.94
2022-08-20T20:57:01.295Z,97669.56
2022-08-20T20:59:30.253Z,97676.56
2022-08-20T21:02:00.577Z,97678.56
2022-08-20T21:04:29.298Z,97678.56
2022-08-20T21:06:59.327Z,97687.97
2022-08-20T21:09:27.646Z,97683.22
2022-08-20T21:11:55.633Z,97687.09
2022-08-20T21:14:23.770Z,97685.47
2022-08-20T21:16:52.022Z,97689.38
2022-08-20T21:19:21.523Z,97680.34
2022-08-20T21:21:49.581Z,97671.66
2022-08-20T21:24:17.521Z,97675.22
2022-08-20T21:26:47.051Z,97675.97
2022-08-20T21:29:18.057Z,97659.44
2022-08-20T21:31:46.790Z,97657.88
2022-08-20T21:34:16.443Z,97651.22
2022-08-20T21:36:46.381Z,97646.44
2022-08-20T21:39:14.573Z,97649.25
2022-08-20T21:41:43.090Z,97658.69
2022-08-20T21:44:16.127Z,97656.69
2022-08-20T21:46:49.761Z,97650.78
2022-08-20T21:49:19.496Z,97651.59
2022-08-20T21:51:48.887Z,97645.28
2022-08-20T21:54:17.237Z,97641.78
2022-08-20T21:56:47.586Z,97644.91
2022-08-20T21:59:18.093Z,97647.25
2022-08-20T22:01:46.401Z,97657.88
2022-08-20T22:04:14.262Z,97656.31
2022-08-20T22:06:43.061Z,97656.41
2022-08-20T22:09:12.516Z,97650.50
2022-08-20T22:11:40.394Z,97654.84
2022-08-20T22:14:10.224Z,97650.88
2022-08-20T22:16:38.619Z,97655.59
2022-08-20T22:19:16.184Z,97648.50
2022-08-20T22:21:44.872Z,97642.22
2022-08-20T22:24:14.761Z,97634.38
2022-08-20T22:26:43.694Z,97642.97
2022-08-20T22:29:12.931Z,97644.56
2022-08-20T22:31:43.615Z,97642.22
2022-08-20T22:34:13.530Z,97644.56
2022-08-20T22:36:42.158Z,97639.84
2022-08-20T22:39:10.469Z,97635.84
2022-08-20T22:41:40.369Z,97629.97
2022-08-20T22:44:08.855Z,97633.50
2022-08-20T22:46:43.669Z,97631.16
2022-08-20T22:49:18.890Z,97638.59
2022-08-20T22:51:47.039Z,97641.28
2022-08-20T22:54:20.381Z,97639.72
2022-08-20T22:56:50.999Z,97635.81
2022-08-20T22:59:19.886Z,97648.00
2022-08-20T23:01:48.272Z,97635.81
2022-08-20T23:04:24.161Z,97642.09
2022-08-20T23:06:52.489Z,97643.28
2022-08-20T23:09:21.309Z,97640.88
2022-08-20T23:11:50.979Z,97631.84
2022-08-20T23:14:19.686Z,97636.16
2022-08-20T23:16:53.270Z,97622.34
2022-08-20T23:19:23.176Z,97633.75
2022-08-20T23:21:51.833Z,97628.66
2022-08-20T23:24:20.917Z,97622.38
2022-08-20T23:26:52.757Z,97612.94
2022-08-20T23:29:25.659Z,97612.91
2022-08-20T23:31:55.494Z,97616.00
2022-08-20T23:34:23.587Z,97614.47
2022-08-20T23:36:52.387Z,97609.69
2022-08-20T23:39:20.746Z,97614.41
2022-08-20T23:41:50.461Z,97611.28
2022-08-20T23:44:25.191Z,97615.22
2022-08-20T23:46:56.644Z,97612.09
2022-08-20T23:49:24.624Z,97612.09
2022-08-20T23:51:52.671Z,97606.97
2022-08-20T23:54:20.817Z,97607.28
2022-08-20T23:56:50.253Z,97604.19
2022-08-20T23:59:18.225Z,97601.06
